• Join FlightAware (Why Join?)
  • Login
  • US Flag 
08:53AM EDT


 

Airport Tracker/Info


-or-


 

Live Flight TrackerFlight Track Log ✈ DAL1578 ✈ 07-Apr-2013 ✈ KATL - KMHT

Flight Track Log - Related Links

Times and Time Zones

All times are in EDT time to prevent confusion due to time zone crossing. See the DAL1578 flight status page for this flight to view local times or setup timezone preferences in your user account.

Time Position Orientation Groundspeed Altitude Reporting Facility
EDT Latitude Longitude Course Direction KTS MPH feet Rate Location/Type
06:47PM 33.6497 -84.3633 North 456 525 3,100  Level Atlanta Center
06:48PM 33.6500 -84.3333 89° East 227 261 3,800 2,400 Climbing Atlanta TRACON
06:49PM 33.6833 -84.2500 64° Northeast 290 334 6,300 3,000 Climbing Atlanta TRACON
06:50PM 33.7667 -84.2500 360° North 289 333 9,500 1,920 Climbing Atlanta TRACON
06:51PM 33.9256 -84.2617 357° North 353 406 11,500 1,740 Climbing Atlanta Center
06:52PM 34.0278 -84.2669 358° North 363 418 14,300 2,820 Climbing Atlanta Center
06:53PM 34.1873 -84.2667 North  Level FlightAware Approximate
06:53PM 34.1281 -84.2672 360° North 363 418 17,300  Level Atlanta Center
06:54PM 34.2428 -84.2397 11° North 391 450 19,300 2,040 Climbing Atlanta Center
06:55PM 34.3556 -84.2175 North 399 459 21,400 2,160 Climbing Atlanta Center
06:56PM 34.4725 -84.1925 10° North 419 482 23,700 1,980 Climbing Atlanta Center
06:57PM 34.5914 -84.1700 North 427 491 25,400 1,560 Climbing Atlanta Center
06:58PM 34.7106 -84.1475 North 427 491 26,900 1,560 Climbing Atlanta Center
06:59PM 34.8356 -84.1197 10° North 432 497 28,600 1,560 Climbing Atlanta Center
07:00PM 34.9631 -84.0944 North 438 504 30,000 1,380 Climbing Atlanta Center
07:01PM 35.0881 -84.0667 10° North 458 527 31,400 1,380 Climbing Atlanta Center
07:02PM 35.2175 -84.0414 North 463 533 32,800 1,380 Climbing Atlanta Center
07:03PM 35.3428 -84.0133 10° North 463 533 34,200 1,440 Climbing Atlanta Center
07:04PM 35.4658 -83.9878 10° North 463 533 35,700 1,260 Climbing Atlanta Center
07:05PM 35.5889 -83.9622 10° North 451 519 36,800 600 Climbing Atlanta Center
07:06PM 35.7100 -83.9364 10° North 446 513 37,000 60 Climbing Atlanta Center
07:07PM 35.8350 -83.9106 10° North 446 513 37,000  Level Atlanta Center
07:08PM 35.9539 -83.8642 18° North 446 513 37,000  Level Atlanta Center
07:09PM 36.0683 -83.7922 27° Northeast 446 513 37,000  Level Atlanta Center
07:10PM 36.1831 -83.7222 26° Northeast 451 519 37,000  Level Atlanta Center
07:12PM 36.4125 -83.5728 28° Northeast 464 534 37,000  Level Indianapolis Center
07:14PM 36.5317 -83.5011 26° Northeast 462 532 37,000  Level Indianapolis Center
07:15PM 36.6519 -83.4397 22° Northeast 462 532 37,000  Level Indianapolis Center
07:16PM 36.7725 -83.3769 23° Northeast 465 535 37,000  Level Indianapolis Center
07:17PM 36.8933 -83.3153 22° Northeast 464 534 37,000  Level Indianapolis Center
07:18PM 37.0342 -83.2414 23° Northeast 465 535 37,000  Level Indianapolis Center
07:19PM 37.1539 -83.1683 26° Northeast 474 545 37,000  Level Indianapolis Center
07:20PM 37.2531 -83.0483 44° Northeast 488 562 37,000  Level Indianapolis Center
07:21PM 37.3494 -82.9250 45° Northeast 489 563 37,000  Level Indianapolis Center
07:22PM 37.4453 -82.8014 46° Northeast 491 565 37,000  Level Indianapolis Center
07:23PM 37.5403 -82.6778 46° Northeast 491 565 37,000  Level Indianapolis Center
07:24PM 37.6356 -82.5553 45° Northeast 488 562 37,000  Level Indianapolis Center
07:25PM 37.7306 -82.4311 46° Northeast 488 562 37,000  Level Indianapolis Center
07:26PM 37.8403 -82.2883 46° Northeast 483 556 37,000  Level Indianapolis Center
07:27PM 37.9344 -82.1669 45° Northeast 485 558 37,000  Level Indianapolis Center
07:28PM 38.0272 -82.0456 46° Northeast 490 564 37,000  Level Indianapolis Center
07:29PM 38.1211 -81.9225 46° Northeast 487 560 37,000  Level Indianapolis Center
07:30PM 38.2150 -81.7989 46° Northeast 487 560 37,000  Level Indianapolis Center
07:31PM 38.3069 -81.6742 47° Northeast 485 558 37,000  Level Indianapolis Center
07:32PM 38.3997 -81.5500 46° Northeast 487 560 37,000  Level Indianapolis Center
07:33PM 38.5111 -81.4022 46° Northeast 488 562 37,000  Level Indianapolis Center
07:34PM 38.6025 -81.2786 47° Northeast 488 562 37,000  Level Indianapolis Center
07:35PM 38.6944 -81.1544 46° Northeast 489 563 37,000  Level Indianapolis Center
07:36PM 38.7875 -81.0278 47° Northeast 491 565 37,000  Level Indianapolis Center
07:37PM 38.8803 -80.9006 47° Northeast 491 565 37,000  Level Indianapolis Center
07:38PM 38.9942 -80.7458 47° Northeast 495 570 37,000  Level Indianapolis Center
07:39PM 39.0869 -80.6186 47° Northeast 491 565 37,000  Level Indianapolis Center
07:40PM 39.1794 -80.4889 47° Northeast 491 565 37,000  Level Indianapolis Center
07:41PM 39.2731 -80.3603 47° Northeast 491 565 37,000  Level Indianapolis Center
07:42PM 39.3622 -80.2422 46° Northeast 491 565 37,000  Level Cleveland Center
07:43PM 39.4556 -80.1153 46° Northeast 486 559 37,000  Level Cleveland Center
07:44PM 39.5486 -79.9828 48° Northeast 486 559 37,000  Level Cleveland Center
07:45PM 39.6500 -79.8389 48° Northeast 486 559 37,000  Level Cleveland Center
07:46PM 39.7428 -79.7056 48° Northeast 493 567 37,000  Level Cleveland Center
07:47PM 39.8375 -79.5747 47° Northeast 493 567 37,000  Level Cleveland Center
07:48PM 39.9300 -79.4406 48° Northeast 493 567 37,000  Level Cleveland Center
07:49PM 40.0244 -79.3061 47° Northeast 493 567 37,000  Level Cleveland Center
07:50PM 40.1044 -79.1853 49° Northeast 488 562 37,000  Level Cleveland Center
07:51PM 40.1986 -79.0500 48° Northeast 488 562 37,000  Level Cleveland Center
07:52PM 40.2906 -78.9172 48° Northeast 493 567 37,000  Level Cleveland Center
07:53PM 40.3844 -78.7786 48° Northeast 498 573 37,000  Level Cleveland Center
07:54PM 40.4761 -78.6453 48° Northeast 498 573 37,000  Level Cleveland Center
07:58PM 40.8567 -78.0778 48° Northeast 497 572 37,000  Level New York Center
07:59PM 40.9425 -77.9358 51° Northeast 497 572 37,000  Level New York Center
08:00PM 41.0144 -77.7811 58° Northeast 491 565 37,000  Level New York Center
08:01PM 41.0861 -77.6233 59° Northeast 491 565 37,000  Level New York Center
08:02PM 41.1572 -77.4706 58° Northeast 491 565 37,000  Level New York Center
08:03PM 41.2353 -77.3044 58° Northeast 486 559 37,000  Level New York Center
08:04PM 41.3086 -77.1458 58° Northeast 486 559 37,000  Level New York Center
08:05PM 41.3794 -76.9867 59° Northeast 491 565 37,000  Level New York Center
08:07PM 41.5114 -76.7017 58° Northeast 498 573 37,000  Level Boston Center
08:08PM 41.5839 -76.5425 59° Northeast 498 573 37,000  Level Boston Center
08:09PM 41.6406 -76.4156 59° Northeast 498 573 37,000  Level Boston Center
08:10PM 41.7267 -76.2181 60° Northeast 498 573 37,000  Level Boston Center
08:11PM 41.8033 -76.0414 60° Northeast 493 567 37,000  Level Boston Center
08:12PM 41.8731 -75.8781 60° Northeast 493 567 37,000  Level Boston Center
08:13PM 41.9444 -75.7144 60° Northeast 493 567 37,000  Level Boston Center
08:14PM 42.0136 -75.5558 60° Northeast 493 567 37,000  Level Boston Center
08:15PM 42.0803 -75.3997 60° Northeast 488 562 37,000  Level Boston Center
08:16PM 42.1469 -75.2461 60° Northeast 481 554 37,000  Level Boston Center
08:17PM 42.2131 -75.0947 59° Northeast 470 541 37,000 -720 Level Boston Center
08:18PM 42.2792 -74.9319 61° Northeast 475 547 35,600 -1,800 Descending Boston Center
08:19PM 42.3472 -74.7744 60° Northeast 475 547 33,500 -2,160 Descending Boston Center
08:20PM 42.4150 -74.6111 61° Northeast 475 547 31,300 -2,220 Descending Boston Center
08:21PM 42.4847 -74.4475 60° Northeast 486 559 29,100 -1,200 Descending Boston Center
08:22PM 42.5458 -74.2972 61° Northeast 497 572 29,000 -600 Descending Boston Center
08:23PM 42.5819 -74.1178 75° East 497 572 28,000 -1,320 Descending Boston Center
08:24PM 42.6181 -73.9186 76° East 497 572 26,400 -1,680 Descending Boston Center
08:25PM 42.6472 -73.7442 77° East 484 557 24,600 -1,740 Descending Boston Center
08:26PM 42.6697 -73.5894 79° East 476 548 23,000 -1,680 Descending Boston Center
08:27PM 42.6881 -73.4203 82° East 463 533 21,300 -1,440 Descending Boston Center
08:28PM 42.7039 -73.2567 82° East 453 521 20,200 -1,080 Descending Boston Center
08:29PM 42.7217 -73.0900 82° East 448 516 19,200 -600 Descending Boston Center
08:30PM 42.7369 -72.9264 83° East 443 510 19,000 -480 Descending Boston Center
08:31PM 42.7542 -72.7483 82° East 438 504 18,300 -1,380 Descending Boston Center
08:32PM 42.7672 -72.5900 84° East 438 504 16,300 -2,100 Descending Boston Center
08:33PM 42.7817 -72.4372 83° East 418 481 14,200 -2,040 Descending Boston Center
08:34PM 42.7942 -72.2872 83° East 406 467 12,300 -1,800 Descending Boston Center
08:35PM 42.8044 -72.1431 84° East 392 451 10,600 -1,260 Descending Boston Center
08:36PM 42.8289 -72.0211 75° East 351 404 9,800 -1,020 Descending Boston Center
08:37PM 42.8806 -71.9331 51° Northeast 305 351 8,600 -1,560 Descending Boston Center
08:38PM 42.9325 -71.8475 50° Northeast 284 327 6,800 -1,800 Descending Boston Center
08:39PM 42.9778 -71.7589 55° Northeast 284 327 5,100 -1,500 Descending Boston Center
08:40PM 42.9981 -71.6567 75° East 274 315 3,800 -1,140 Descending Boston Center
08:41PM 43.0222 -71.5739 68° East 256 295 2,900 -900 Descending Boston Center
08:42PM 43.0261 -71.5086 85° East 189 217 2,100 -780 Descending Boston Center
08:43PM 43.0006 -71.4719 134° Southeast 137 158 1,400 -720 Descending Boston Center
08:44PM 42.9650 -71.4556 161° South 126 145 700 -600 Descending Boston Center
08:45PM 42.9336 -71.4306 150° Southeast 131 151 300 4,080 Descending Boston Center
08:46PM 42.9022 -71.4111 156° South 131 151 9,000 4,380 Climbing Boston Center
08:47PM 42.8708 -71.3892 153° Southeast 131 151 9,000  Level Boston Center
08:48PM 42.8392 -71.3697 156° South 131 151 9,000  Level Boston Center
08:50PM 42.9167 -71.4333 316° Northwest  Level FlightAware Approximate